createdAt,value
2017-06-06T00:02:34.954Z,0
2017-06-06T00:12:50.366Z,0
2017-06-06T00:23:05.227Z,0
2017-06-06T00:33:19.639Z,0
2017-06-06T00:43:34.672Z,0
2017-06-06T00:53:48.900Z,0
2017-06-06T01:04:03.233Z,0
2017-06-06T01:14:17.321Z,0
2017-06-06T01:24:32.073Z,0
2017-06-06T01:34:47.696Z,0
2017-06-06T01:45:01.611Z,0
2017-06-06T01:55:17.280Z,0
2017-06-06T02:05:31.235Z,0
2017-06-06T02:15:46.735Z,0
2017-06-06T02:26:00.645Z,4
2017-06-06T02:36:15.832Z,8
2017-06-06T02:46:30.397Z,24
2017-06-06T02:56:44.326Z,96
2017-06-06T03:06:59.666Z,292
2017-06-06T03:17:14.403Z,500
2017-06-06T03:27:29.514Z,768
2017-06-06T03:37:44.849Z,1200
2017-06-06T03:47:59.912Z,1500
2017-06-06T03:58:15.420Z,2132
2017-06-06T04:08:29.632Z,5692
2017-06-06T04:18:43.878Z,5444
2017-06-06T04:28:58.607Z,6500
2017-06-06T04:39:14.096Z,7296
2017-06-06T04:49:29.792Z,6968
2017-06-06T04:59:44.713Z,9204
2017-06-06T05:09:58.963Z,8192
2017-06-06T05:20:13.340Z,12812
2017-06-06T05:30:28.650Z,15576
2017-06-06T05:40:43.151Z,14256
2017-06-06T05:50:58.757Z,16584
2017-06-06T06:01:14.040Z,21376
2017-06-06T06:11:29.163Z,20320
2017-06-06T06:21:43.740Z,22112
2017-06-06T06:31:58.415Z,51200
2017-06-06T06:42:13.252Z,34848
2017-06-06T06:52:27.134Z,18912
2017-06-06T07:02:42.285Z,20704
2017-06-06T07:12:57.686Z,28000
2017-06-06T07:23:12.839Z,18336
2017-06-06T07:33:27.969Z,21792
2017-06-06T07:43:42.751Z,28000
2017-06-06T07:53:56.831Z,24384
2017-06-06T08:04:12.672Z,24512
2017-06-06T08:14:27.168Z,34624
2017-06-06T08:24:41.361Z,31744
2017-06-06T08:34:56.821Z,14528
2017-06-06T08:45:11.222Z,15224
2017-06-06T08:55:26.458Z,13716
2017-06-06T09:05:41.571Z,16384
2017-06-06T09:15:55.784Z,12204
2017-06-06T09:26:10.366Z,15040
2017-06-06T09:36:25.598Z,27392
2017-06-06T09:46:40.324Z,27744
2017-06-06T09:56:55.417Z,21120
2017-06-06T10:07:10.279Z,20352
2017-06-06T10:17:24.771Z,13608
2017-06-06T10:27:38.572Z,25568
2017-06-06T10:37:53.912Z,25952
2017-06-06T10:48:08.756Z,30976
2017-06-06T10:58:22.921Z,15692
2017-06-06T11:08:36.870Z,35488
2017-06-06T11:18:50.802Z,56512
2017-06-06T11:29:05.835Z,34048
2017-06-06T11:39:21.231Z,13164
2017-06-06T11:49:35.247Z,26112
2017-06-06T11:59:50.582Z,33952
2017-06-06T12:10:05.573Z,48256
2017-06-06T12:20:20.477Z,59040
2017-06-06T12:30:35.209Z,47584
2017-06-06T12:40:50.490Z,109824
2017-06-06T12:51:05.387Z,50816
2017-06-06T13:01:19.706Z,49888
2017-06-06T13:11:33.705Z,37504
2017-06-06T13:21:47.851Z,48864
2017-06-06T13:32:01.758Z,118720
2017-06-06T13:42:16.092Z,109152
2017-06-06T13:52:32.002Z,111648
2017-06-06T14:02:47.138Z,33888
2017-06-06T14:13:02.639Z,63520
2017-06-06T14:23:17.651Z,35712
2017-06-06T14:33:33.115Z,30656
2017-06-06T14:43:47.349Z,42880
2017-06-06T14:54:01.772Z,94144
2017-06-06T15:04:17.278Z,78336
2017-06-06T15:14:32.187Z,25280
2017-06-06T15:24:48.057Z,13100
2017-06-06T15:35:03.440Z,99360
2017-06-06T15:45:18.112Z,17248
2017-06-06T15:55:33.369Z,69440
2017-06-06T16:05:47.906Z,57472
2017-06-06T16:16:03.251Z,67392
2017-06-06T16:26:17.915Z,30688
2017-06-06T16:36:33.747Z,15620
2017-06-06T16:46:49.097Z,55488
2017-06-06T16:57:03.760Z,50560
2017-06-06T17:07:19.475Z,40192
2017-06-06T17:17:35.091Z,3968
2017-06-06T17:27:48.938Z,2644
2017-06-06T17:38:02.757Z,45088
2017-06-06T17:48:18.407Z,28672
2017-06-06T17:58:33.738Z,5928
2017-06-06T18:08:47.947Z,7588
2017-06-06T18:19:03.533Z,5904
2017-06-06T18:29:18.889Z,4284
2017-06-06T18:39:32.962Z,3600
2017-06-06T18:49:48.053Z,4848
2017-06-06T19:00:03.197Z,1384
2017-06-06T19:10:18.245Z,548
2017-06-06T19:20:33.114Z,280
2017-06-06T19:30:48.059Z,696
2017-06-06T19:41:01.932Z,452
2017-06-06T19:51:15.928Z,212
2017-06-06T20:01:29.823Z,84
2017-06-06T20:11:44.824Z,28
2017-06-06T20:21:59.544Z,8
2017-06-06T20:32:15.480Z,4
2017-06-06T20:42:29.038Z,0
2017-06-06T20:52:43.548Z,0
2017-06-06T21:02:57.705Z,0
2017-06-06T21:13:12.593Z,0
2017-06-06T21:23:27.140Z,0
2017-06-06T21:33:40.951Z,0
2017-06-06T21:43:55.885Z,0
2017-06-06T21:54:09.824Z,0
2017-06-06T22:04:24.584Z,0
2017-06-06T22:14:40.008Z,0
2017-06-06T22:24:54.743Z,0
2017-06-06T22:35:09.036Z,0
2017-06-06T22:45:23.275Z,0
2017-06-06T22:55:37.263Z,0
2017-06-06T23:05:51.037Z,0
2017-06-06T23:16:06.589Z,0
2017-06-06T23:26:20.485Z,0
2017-06-06T23:36:34.279Z,0
2017-06-06T23:46:48.169Z,0
2017-06-06T23:57:02.806Z,0
